sensor_id;sensor_type;location;lat;lon;timestamp;P1;durP1;ratioP1;P2;durP2;ratioP2
51618;SDS011;38518;53.164;5.430;2024-03-06T00:01:53;35.08;;;29.73;;
51618;SDS011;38518;53.164;5.430;2024-03-06T00:04:19;27.33;;;19.13;;
51618;SDS011;38518;53.164;5.430;2024-03-06T00:06:45;33.85;;;21.33;;
51618;SDS011;38518;53.164;5.430;2024-03-06T00:09:10;26.33;;;16.67;;
51618;SDS011;38518;53.164;5.430;2024-03-06T00:11:37;36.00;;;29.77;;
51618;SDS011;38518;53.164;5.430;2024-03-06T00:14:02;32.60;;;21.48;;
51618;SDS011;38518;53.164;5.430;2024-03-06T00:16:30;35.38;;;29.25;;
51618;SDS011;38518;53.164;5.430;2024-03-06T00:18:56;34.58;;;21.23;;
51618;SDS011;38518;53.164;5.430;2024-03-06T00:21:22;34.53;;;26.55;;
51618;SDS011;38518;53.164;5.430;2024-03-06T00:23:48;32.10;;;22.33;;
51618;SDS011;38518;53.164;5.430;2024-03-06T00:26:13;33.00;;;21.67;;
51618;SDS011;38518;53.164;5.430;2024-03-06T00:28:39;37.80;;;21.60;;
51618;SDS011;38518;53.164;5.430;2024-03-06T00:31:05;29.17;;;22.05;;
51618;SDS011;38518;53.164;5.430;2024-03-06T00:33:31;31.88;;;20.70;;
51618;SDS011;38518;53.164;5.430;2024-03-06T00:35:57;33.00;;;28.35;;
51618;SDS011;38518;53.164;5.430;2024-03-06T00:38:22;35.20;;;21.65;;
51618;SDS011;38518;53.164;5.430;2024-03-06T00:40:48;27.98;;;20.48;;
51618;SDS011;38518;53.164;5.430;2024-03-06T00:43:14;31.17;;;27.70;;
51618;SDS011;38518;53.164;5.430;2024-03-06T00:45:40;31.35;;;25.95;;
51618;SDS011;38518;53.164;5.430;2024-03-06T00:48:06;31.45;;;23.00;;
51618;SDS011;38518;53.164;5.430;2024-03-06T00:50:33;25.70;;;17.88;;
51618;SDS011;38518;53.164;5.430;2024-03-06T00:52:59;27.50;;;23.58;;
51618;SDS011;38518;53.164;5.430;2024-03-06T00:55:24;31.50;;;26.02;;
51618;SDS011;38518;53.164;5.430;2024-03-06T00:57:50;30.42;;;19.33;;
51618;SDS011;38518;53.164;5.430;2024-03-06T01:00:16;30.40;;;25.95;;
51618;SDS011;38518;53.164;5.430;2024-03-06T01:02:42;29.20;;;19.08;;
51618;SDS011;38518;53.164;5.430;2024-03-06T01:05:08;29.30;;;19.10;;
51618;SDS011;38518;53.164;5.430;2024-03-06T01:07:34;26.05;;;18.02;;
51618;SDS011;38518;53.164;5.430;2024-03-06T01:10:03;30.15;;;18.58;;
51618;SDS011;38518;53.164;5.430;2024-03-06T01:12:31;29.45;;;25.20;;
51618;SDS011;38518;53.164;5.430;2024-03-06T01:15:00;31.40;;;25.08;;
51618;SDS011;38518;53.164;5.430;2024-03-06T01:17:26;30.27;;;18.55;;
51618;SDS011;38518;53.164;5.430;2024-03-06T01:19:52;31.05;;;24.95;;
51618;SDS011;38518;53.164;5.430;2024-03-06T01:22:18;27.40;;;17.65;;
51618;SDS011;38518;53.164;5.430;2024-03-06T01:24:44;30.70;;;18.35;;
51618;SDS011;38518;53.164;5.430;2024-03-06T01:27:10;26.65;;;18.52;;
51618;SDS011;38518;53.164;5.430;2024-03-06T01:29:35;25.52;;;16.42;;
51618;SDS011;38518;53.164;5.430;2024-03-06T01:32:01;27.20;;;17.95;;
51618;SDS011;38518;53.164;5.430;2024-03-06T01:34:27;28.27;;;18.17;;
51618;SDS011;38518;53.164;5.430;2024-03-06T01:36:53;27.63;;;24.48;;
51618;SDS011;38518;53.164;5.430;2024-03-06T01:39:19;30.27;;;24.27;;
51618;SDS011;38518;53.164;5.430;2024-03-06T01:41:48;25.27;;;16.50;;
51618;SDS011;38518;53.164;5.430;2024-03-06T01:44:16;21.15;;;16.10;;
51618;SDS011;38518;53.164;5.430;2024-03-06T01:46:43;26.88;;;17.70;;
51618;SDS011;38518;53.164;5.430;2024-03-06T01:49:10;29.90;;;17.15;;
51618;SDS011;38518;53.164;5.430;2024-03-06T01:51:38;26.25;;;16.90;;
51618;SDS011;38518;53.164;5.430;2024-03-06T01:54:05;30.27;;;16.38;;
51618;SDS011;38518;53.164;5.430;2024-03-06T01:56:35;24.40;;;16.63;;
51618;SDS011;38518;53.164;5.430;2024-03-06T01:59:03;26.17;;;17.88;;
51618;SDS011;38518;53.164;5.430;2024-03-06T02:01:29;26.52;;;18.00;;
51618;SDS011;38518;53.164;5.430;2024-03-06T02:03:57;29.23;;;17.33;;
51618;SDS011;38518;53.164;5.430;2024-03-06T02:06:23;27.33;;;17.73;;
51618;SDS011;38518;53.164;5.430;2024-03-06T02:08:49;27.17;;;17.88;;
51618;SDS011;38518;53.164;5.430;2024-03-06T02:11:16;28.88;;;17.45;;
51618;SDS011;38518;53.164;5.430;2024-03-06T02:13:42;22.40;;;16.48;;
51618;SDS011;38518;53.164;5.430;2024-03-06T02:16:09;23.88;;;20.42;;
51618;SDS011;38518;53.164;5.430;2024-03-06T02:18:35;29.30;;;16.80;;
51618;SDS011;38518;53.164;5.430;2024-03-06T02:21:02;24.70;;;16.60;;
51618;SDS011;38518;53.164;5.430;2024-03-06T02:23:29;29.00;;;19.92;;
51618;SDS011;38518;53.164;5.430;2024-03-06T02:25:55;27.35;;;20.98;;
51618;SDS011;38518;53.164;5.430;2024-03-06T02:28:21;24.48;;;16.00;;
51618;SDS011;38518;53.164;5.430;2024-03-06T02:30:50;25.42;;;20.98;;
51618;SDS011;38518;53.164;5.430;2024-03-06T02:33:16;24.33;;;15.93;;
51618;SDS011;38518;53.164;5.430;2024-03-06T02:35:43;22.05;;;13.25;;
51618;SDS011;38518;53.164;5.430;2024-03-06T02:38:10;28.10;;;20.55;;
51618;SDS011;38518;53.164;5.430;2024-03-06T02:40:35;24.05;;;15.85;;
51618;SDS011;38518;53.164;5.430;2024-03-06T02:43:01;25.92;;;15.48;;
51618;SDS011;38518;53.164;5.430;2024-03-06T02:45:27;24.15;;;18.92;;
51618;SDS011;38518;53.164;5.430;2024-03-06T02:47:53;30.35;;;15.70;;
51618;SDS011;38518;53.164;5.430;2024-03-06T02:50:19;26.88;;;16.65;;
51618;SDS011;38518;53.164;5.430;2024-03-06T02:52:46;24.35;;;16.65;;
51618;SDS011;38518;53.164;5.430;2024-03-06T02:55:12;30.42;;;16.58;;
51618;SDS011;38518;53.164;5.430;2024-03-06T02:57:37;23.17;;;15.80;;
51618;SDS011;38518;53.164;5.430;2024-03-06T03:00:03;22.30;;;14.80;;
51618;SDS011;38518;53.164;5.430;2024-03-06T03:02:30;23.23;;;15.15;;
51618;SDS011;38518;53.164;5.430;2024-03-06T03:04:56;25.70;;;14.65;;
51618;SDS011;38518;53.164;5.430;2024-03-06T03:07:22;23.77;;;15.80;;
51618;SDS011;38518;53.164;5.430;2024-03-06T03:09:48;23.52;;;19.52;;
51618;SDS011;38518;53.164;5.430;2024-03-06T03:12:14;28.30;;;19.77;;
51618;SDS011;38518;53.164;5.430;2024-03-06T03:14:40;24.58;;;18.52;;
51618;SDS011;38518;53.164;5.430;2024-03-06T03:17:06;23.00;;;15.50;;
51618;SDS011;38518;53.164;5.430;2024-03-06T03:19:32;23.88;;;19.52;;
51618;SDS011;38518;53.164;5.430;2024-03-06T03:21:58;24.65;;;14.88;;
51618;SDS011;38518;53.164;5.430;2024-03-06T03:24:24;24.17;;;14.90;;
51618;SDS011;38518;53.164;5.430;2024-03-06T03:26:53;26.20;;;19.70;;
51618;SDS011;38518;53.164;5.430;2024-03-06T03:29:19;22.70;;;15.23;;
51618;SDS011;38518;53.164;5.430;2024-03-06T03:31:46;21.83;;;14.75;;
51618;SDS011;38518;53.164;5.430;2024-03-06T03:34:11;23.17;;;14.88;;
51618;SDS011;38518;53.164;5.430;2024-03-06T03:36:41;28.13;;;15.32;;
51618;SDS011;38518;53.164;5.430;2024-03-06T03:39:07;24.75;;;19.63;;
51618;SDS011;38518;53.164;5.430;2024-03-06T03:41:48;25.83;;;14.95;;
51618;SDS011;38518;53.164;5.430;2024-03-06T03:44:17;22.45;;;14.20;;
51618;SDS011;38518;53.164;5.430;2024-03-06T03:46:49;20.15;;;13.43;;
51618;SDS011;38518;53.164;5.430;2024-03-06T03:49:14;24.65;;;15.30;;
51618;SDS011;38518;53.164;5.430;2024-03-06T03:51:41;22.30;;;14.70;;
51618;SDS011;38518;53.164;5.430;2024-03-06T03:54:07;22.33;;;14.43;;
51618;SDS011;38518;53.164;5.430;2024-03-06T03:56:33;20.88;;;15.00;;
51618;SDS011;38518;53.164;5.430;2024-03-06T03:58:59;22.10;;;14.80;;
51618;SDS011;38518;53.164;5.430;2024-03-06T04:01:24;27.30;;;19.45;;
51618;SDS011;38518;53.164;5.430;2024-03-06T04:03:50;24.20;;;15.55;;
51618;SDS011;38518;53.164;5.430;2024-03-06T04:06:16;24.48;;;15.07;;
51618;SDS011;38518;53.164;5.430;2024-03-06T04:08:42;22.95;;;15.15;;
51618;SDS011;38518;53.164;5.430;2024-03-06T04:11:08;24.02;;;15.20;;
51618;SDS011;38518;53.164;5.430;2024-03-06T04:13:35;25.45;;;15.82;;
51618;SDS011;38518;53.164;5.430;2024-03-06T04:16:02;28.75;;;15.82;;
51618;SDS011;38518;53.164;5.430;2024-03-06T04:18:29;25.23;;;15.10;;
51618;SDS011;38518;53.164;5.430;2024-03-06T04:21:04;21.27;;;14.52;;
51618;SDS011;38518;53.164;5.430;2024-03-06T04:23:30;22.15;;;15.15;;
51618;SDS011;38518;53.164;5.430;2024-03-06T04:25:56;23.38;;;15.05;;
51618;SDS011;38518;53.164;5.430;2024-03-06T04:28:22;27.38;;;15.88;;
51618;SDS011;38518;53.164;5.430;2024-03-06T04:30:48;25.35;;;15.82;;
51618;SDS011;38518;53.164;5.430;2024-03-06T04:33:13;24.63;;;15.40;;
51618;SDS011;38518;53.164;5.430;2024-03-06T04:35:40;26.75;;;16.25;;
51618;SDS011;38518;53.164;5.430;2024-03-06T04:38:06;24.80;;;15.73;;
51618;SDS011;38518;53.164;5.430;2024-03-06T04:40:33;24.35;;;15.82;;
51618;SDS011;38518;53.164;5.430;2024-03-06T04:42:59;29.70;;;16.05;;
51618;SDS011;38518;53.164;5.430;2024-03-06T04:45:28;24.88;;;15.27;;
51618;SDS011;38518;53.164;5.430;2024-03-06T04:47:54;25.52;;;13.82;;
51618;SDS011;38518;53.164;5.430;2024-03-06T04:50:20;25.67;;;16.30;;
51618;SDS011;38518;53.164;5.430;2024-03-06T04:52:46;21.10;;;14.10;;
51618;SDS011;38518;53.164;5.430;2024-03-06T04:55:12;25.65;;;15.40;;
51618;SDS011;38518;53.164;5.430;2024-03-06T04:57:42;23.02;;;15.50;;
51618;SDS011;38518;53.164;5.430;2024-03-06T05:00:09;24.15;;;16.00;;
51618;SDS011;38518;53.164;5.430;2024-03-06T05:02:36;25.25;;;16.15;;
51618;SDS011;38518;53.164;5.430;2024-03-06T05:05:02;24.90;;;16.55;;
51618;SDS011;38518;53.164;5.430;2024-03-06T05:07:29;27.13;;;15.55;;
51618;SDS011;38518;53.164;5.430;2024-03-06T05:09:55;28.65;;;15.63;;
51618;SDS011;38518;53.164;5.430;2024-03-06T05:12:22;24.55;;;16.10;;
51618;SDS011;38518;53.164;5.430;2024-03-06T05:14:49;22.25;;;15.93;;
51618;SDS011;38518;53.164;5.430;2024-03-06T05:17:15;26.20;;;16.58;;
51618;SDS011;38518;53.164;5.430;2024-03-06T05:19:41;24.70;;;15.32;;
51618;SDS011;38518;53.164;5.430;2024-03-06T05:22:07;22.17;;;16.45;;
51618;SDS011;38518;53.164;5.430;2024-03-06T05:24:32;26.05;;;20.42;;
51618;SDS011;38518;53.164;5.430;2024-03-06T05:26:58;25.02;;;15.85;;
51618;SDS011;38518;53.164;5.430;2024-03-06T05:29:24;23.58;;;14.68;;
51618;SDS011;38518;53.164;5.430;2024-03-06T05:31:50;26.55;;;14.70;;
51618;SDS011;38518;53.164;5.430;2024-03-06T05:34:15;26.30;;;17.25;;
51618;SDS011;38518;53.164;5.430;2024-03-06T05:36:41;23.85;;;17.65;;
51618;SDS011;38518;53.164;5.430;2024-03-06T05:39:07;25.48;;;15.20;;
51618;SDS011;38518;53.164;5.430;2024-03-06T05:41:38;24.10;;;15.70;;
51618;SDS011;38518;53.164;5.430;2024-03-06T05:44:05;24.42;;;15.48;;
51618;SDS011;38518;53.164;5.430;2024-03-06T05:46:31;26.70;;;15.20;;
51618;SDS011;38518;53.164;5.430;2024-03-06T05:48:57;26.55;;;15.38;;
51618;SDS011;38518;53.164;5.430;2024-03-06T05:51:23;25.48;;;19.80;;
51618;SDS011;38518;53.164;5.430;2024-03-06T05:53:48;28.05;;;18.05;;
51618;SDS011;38518;53.164;5.430;2024-03-06T05:56:14;27.33;;;14.82;;
51618;SDS011;38518;53.164;5.430;2024-03-06T05:58:42;23.38;;;15.13;;
51618;SDS011;38518;53.164;5.430;2024-03-06T06:01:11;24.00;;;16.27;;
51618;SDS011;38518;53.164;5.430;2024-03-06T06:03:36;28.38;;;15.50;;
51618;SDS011;38518;53.164;5.430;2024-03-06T06:06:03;24.77;;;16.17;;
51618;SDS011;38518;53.164;5.430;2024-03-06T06:08:29;26.13;;;15.93;;
51618;SDS011;38518;53.164;5.430;2024-03-06T06:10:55;22.80;;;20.00;;
51618;SDS011;38518;53.164;5.430;2024-03-06T06:13:21;27.77;;;15.98;;
51618;SDS011;38518;53.164;5.430;2024-03-06T06:15:47;24.23;;;15.77;;
51618;SDS011;38518;53.164;5.430;2024-03-06T06:18:15;26.75;;;15.70;;
51618;SDS011;38518;53.164;5.430;2024-03-06T06:20:41;28.63;;;17.15;;
51618;SDS011;38518;53.164;5.430;2024-03-06T06:23:08;28.63;;;15.98;;
51618;SDS011;38518;53.164;5.430;2024-03-06T06:25:34;26.45;;;16.98;;
51618;SDS011;38518;53.164;5.430;2024-03-06T06:28:00;28.45;;;20.52;;
51618;SDS011;38518;53.164;5.430;2024-03-06T06:30:26;29.63;;;20.67;;
51618;SDS011;38518;53.164;5.430;2024-03-06T06:32:52;29.15;;;17.20;;
51618;SDS011;38518;53.164;5.430;2024-03-06T06:35:17;25.80;;;16.40;;
51618;SDS011;38518;53.164;5.430;2024-03-06T06:37:43;29.77;;;16.40;;
51618;SDS011;38518;53.164;5.430;2024-03-06T06:40:09;29.77;;;21.75;;
51618;SDS011;38518;53.164;5.430;2024-03-06T06:42:36;33.45;;;17.10;;
51618;SDS011;38518;53.164;5.430;2024-03-06T06:45:06;31.13;;;17.00;;
51618;SDS011;38518;53.164;5.430;2024-03-06T06:47:32;34.33;;;21.85;;
51618;SDS011;38518;53.164;5.430;2024-03-06T06:49:58;29.55;;;16.45;;
51618;SDS011;38518;53.164;5.430;2024-03-06T06:52:24;34.42;;;22.88;;
51618;SDS011;38518;53.164;5.430;2024-03-06T06:54:55;31.95;;;18.50;;
51618;SDS011;38518;53.164;5.430;2024-03-06T06:57:21;33.83;;;22.95;;
51618;SDS011;38518;53.164;5.430;2024-03-06T06:59:47;31.48;;;17.83;;
51618;SDS011;38518;53.164;5.430;2024-03-06T07:02:15;32.25;;;17.92;;
51618;SDS011;38518;53.164;5.430;2024-03-06T07:04:41;30.67;;;17.45;;
51618;SDS011;38518;53.164;5.430;2024-03-06T07:07:07;32.10;;;22.38;;
51618;SDS011;38518;53.164;5.430;2024-03-06T07:09:35;31.65;;;18.05;;
51618;SDS011;38518;53.164;5.430;2024-03-06T07:12:01;36.25;;;18.75;;
51618;SDS011;38518;53.164;5.430;2024-03-06T07:14:28;32.95;;;19.00;;
51618;SDS011;38518;53.164;5.430;2024-03-06T07:16:54;31.30;;;17.60;;
51618;SDS011;38518;53.164;5.430;2024-03-06T07:19:19;34.05;;;23.20;;
51618;SDS011;38518;53.164;5.430;2024-03-06T07:21:45;32.00;;;18.13;;
51618;SDS011;38518;53.164;5.430;2024-03-06T07:24:11;33.13;;;18.02;;
51618;SDS011;38518;53.164;5.430;2024-03-06T07:26:37;32.83;;;17.88;;
51618;SDS011;38518;53.164;5.430;2024-03-06T07:29:03;33.08;;;18.65;;
51618;SDS011;38518;53.164;5.430;2024-03-06T07:31:29;34.80;;;17.88;;
51618;SDS011;38518;53.164;5.430;2024-03-06T07:33:55;30.20;;;18.05;;
51618;SDS011;38518;53.164;5.430;2024-03-06T07:36:20;32.60;;;17.33;;
51618;SDS011;38518;53.164;5.430;2024-03-06T07:38:47;27.45;;;17.25;;
51618;SDS011;38518;53.164;5.430;2024-03-06T07:41:13;32.97;;;17.83;;
51618;SDS011;38518;53.164;5.430;2024-03-06T07:43:38;30.60;;;17.20;;
51618;SDS011;38518;53.164;5.430;2024-03-06T07:46:04;32.22;;;16.98;;
51618;SDS011;38518;53.164;5.430;2024-03-06T07:48:36;29.75;;;17.10;;
51618;SDS011;38518;53.164;5.430;2024-03-06T07:51:02;28.60;;;22.80;;
51618;SDS011;38518;53.164;5.430;2024-03-06T07:53:32;26.00;;;17.23;;
51618;SDS011;38518;53.164;5.430;2024-03-06T07:55:58;33.47;;;18.38;;
51618;SDS011;38518;53.164;5.430;2024-03-06T07:58:24;27.95;;;17.05;;
51618;SDS011;38518;53.164;5.430;2024-03-06T08:00:49;27.92;;;17.65;;
51618;SDS011;38518;53.164;5.430;2024-03-06T08:03:17;28.65;;;23.17;;
51618;SDS011;38518;53.164;5.430;2024-03-06T08:05:43;33.05;;;18.52;;
51618;SDS011;38518;53.164;5.430;2024-03-06T08:08:09;29.73;;;17.65;;
51618;SDS011;38518;53.164;5.430;2024-03-06T08:10:34;34.10;;;18.83;;
51618;SDS011;38518;53.164;5.430;2024-03-06T08:13:00;30.75;;;19.05;;
51618;SDS011;38518;53.164;5.430;2024-03-06T08:15:26;32.70;;;18.63;;
51618;SDS011;38518;53.164;5.430;2024-03-06T08:17:52;30.83;;;22.83;;
51618;SDS011;38518;53.164;5.430;2024-03-06T08:20:17;33.60;;;18.23;;
51618;SDS011;38518;53.164;5.430;2024-03-06T08:22:43;33.15;;;18.02;;
51618;SDS011;38518;53.164;5.430;2024-03-06T08:25:09;33.90;;;20.17;;
51618;SDS011;38518;53.164;5.430;2024-03-06T08:27:37;34.70;;;18.10;;
51618;SDS011;38518;53.164;5.430;2024-03-06T08:30:05;32.10;;;20.23;;
51618;SDS011;38518;53.164;5.430;2024-03-06T08:32:32;33.80;;;19.65;;
51618;SDS011;38518;53.164;5.430;2024-03-06T08:35:00;29.52;;;18.05;;
51618;SDS011;38518;53.164;5.430;2024-03-06T08:37:34;32.88;;;22.90;;
51618;SDS011;38518;53.164;5.430;2024-03-06T08:39:59;34.55;;;18.42;;
51618;SDS011;38518;53.164;5.430;2024-03-06T08:42:26;36.03;;;24.80;;
51618;SDS011;38518;53.164;5.430;2024-03-06T08:44:52;32.17;;;21.55;;
51618;SDS011;38518;53.164;5.430;2024-03-06T08:47:18;35.08;;;24.23;;
51618;SDS011;38518;53.164;5.430;2024-03-06T08:49:44;32.67;;;19.00;;
51618;SDS011;38518;53.164;5.430;2024-03-06T08:52:10;29.33;;;18.52;;
51618;SDS011;38518;53.164;5.430;2024-03-06T08:54:36;30.73;;;19.55;;
51618;SDS011;38518;53.164;5.430;2024-03-06T08:57:03;34.58;;;19.95;;
51618;SDS011;38518;53.164;5.430;2024-03-06T08:59:29;30.77;;;17.48;;
51618;SDS011;38518;53.164;5.430;2024-03-06T09:01:55;31.73;;;18.73;;
51618;SDS011;38518;53.164;5.430;2024-03-06T09:04:21;32.97;;;19.70;;
51618;SDS011;38518;53.164;5.430;2024-03-06T09:06:50;32.95;;;20.58;;
51618;SDS011;38518;53.164;5.430;2024-03-06T09:09:16;35.58;;;19.75;;
51618;SDS011;38518;53.164;5.430;2024-03-06T09:11:42;32.08;;;19.77;;
51618;SDS011;38518;53.164;5.430;2024-03-06T09:14:08;33.10;;;19.45;;
51618;SDS011;38518;53.164;5.430;2024-03-06T09:16:36;35.53;;;19.35;;
51618;SDS011;38518;53.164;5.430;2024-03-06T09:19:02;35.22;;;20.73;;
51618;SDS011;38518;53.164;5.430;2024-03-06T09:21:28;38.58;;;20.25;;
51618;SDS011;38518;53.164;5.430;2024-03-06T09:23:53;34.15;;;19.70;;
51618;SDS011;38518;53.164;5.430;2024-03-06T09:26:19;35.88;;;24.77;;
51618;SDS011;38518;53.164;5.430;2024-03-06T09:28:48;32.65;;;22.55;;
51618;SDS011;38518;53.164;5.430;2024-03-06T09:31:14;32.75;;;19.67;;
51618;SDS011;38518;53.164;5.430;2024-03-06T09:33:40;41.95;;;21.95;;
51618;SDS011;38518;53.164;5.430;2024-03-06T09:36:11;39.42;;;20.60;;
51618;SDS011;38518;53.164;5.430;2024-03-06T09:38:39;37.83;;;22.52;;
51618;SDS011;38518;53.164;5.430;2024-03-06T09:41:08;34.78;;;19.42;;
51618;SDS011;38518;53.164;5.430;2024-03-06T09:43:34;32.80;;;19.10;;
51618;SDS011;38518;53.164;5.430;2024-03-06T09:46:00;37.90;;;26.23;;
51618;SDS011;38518;53.164;5.430;2024-03-06T09:48:27;35.83;;;19.67;;
51618;SDS011;38518;53.164;5.430;2024-03-06T09:50:54;32.60;;;20.25;;
51618;SDS011;38518;53.164;5.430;2024-03-06T09:53:26;38.30;;;26.25;;
51618;SDS011;38518;53.164;5.430;2024-03-06T09:55:52;31.65;;;18.45;;
51618;SDS011;38518;53.164;5.430;2024-03-06T09:58:19;35.90;;;20.48;;
51618;SDS011;38518;53.164;5.430;2024-03-06T10:00:46;32.25;;;19.48;;
51618;SDS011;38518;53.164;5.430;2024-03-06T10:03:15;33.25;;;20.95;;
51618;SDS011;38518;53.164;5.430;2024-03-06T10:05:41;34.75;;;25.17;;
51618;SDS011;38518;53.164;5.430;2024-03-06T10:08:08;32.40;;;20.58;;
51618;SDS011;38518;53.164;5.430;2024-03-06T10:10:35;42.75;;;20.75;;
51618;SDS011;38518;53.164;5.430;2024-03-06T10:13:01;37.88;;;21.05;;
51618;SDS011;38518;53.164;5.430;2024-03-06T10:15:27;34.33;;;19.73;;
51618;SDS011;38518;53.164;5.430;2024-03-06T10:18:10;40.55;;;21.55;;
51618;SDS011;38518;53.164;5.430;2024-03-06T10:20:40;39.22;;;21.60;;
51618;SDS011;38518;53.164;5.430;2024-03-06T10:23:09;39.63;;;21.30;;
51618;SDS011;38518;53.164;5.430;2024-03-06T10:25:36;34.92;;;21.00;;
51618;SDS011;38518;53.164;5.430;2024-03-06T10:28:09;35.35;;;26.30;;
51618;SDS011;38518;53.164;5.430;2024-03-06T10:30:37;35.15;;;21.05;;
51618;SDS011;38518;53.164;5.430;2024-03-06T10:33:07;36.13;;;20.30;;
51618;SDS011;38518;53.164;5.430;2024-03-06T10:35:34;41.58;;;21.38;;
51618;SDS011;38518;53.164;5.430;2024-03-06T10:38:03;37.17;;;22.42;;
51618;SDS011;38518;53.164;5.430;2024-03-06T10:40:31;40.03;;;21.42;;
51618;SDS011;38518;53.164;5.430;2024-03-06T10:42:59;39.90;;;26.42;;
51618;SDS011;38518;53.164;5.430;2024-03-06T10:45:39;38.35;;;20.75;;
51618;SDS011;38518;53.164;5.430;2024-03-06T10:48:10;34.17;;;19.27;;
51618;SDS011;38518;53.164;5.430;2024-03-06T10:50:39;36.67;;;23.10;;
51618;SDS011;38518;53.164;5.430;2024-03-06T10:53:09;34.85;;;20.77;;
51618;SDS011;38518;53.164;5.430;2024-03-06T10:55:37;39.13;;;26.15;;
51618;SDS011;38518;53.164;5.430;2024-03-06T10:58:06;40.83;;;25.45;;
51618;SDS011;38518;53.164;5.430;2024-03-06T11:00:39;34.50;;;20.58;;
51618;SDS011;38518;53.164;5.430;2024-03-06T11:03:07;32.42;;;25.35;;
51618;SDS011;38518;53.164;5.430;2024-03-06T11:05:37;32.95;;;20.50;;
51618;SDS011;38518;53.164;5.430;2024-03-06T11:08:08;35.78;;;21.08;;
51618;SDS011;38518;53.164;5.430;2024-03-06T11:10:37;35.63;;;25.27;;
51618;SDS011;38518;53.164;5.430;2024-03-06T11:15:45;33.70;;;20.88;;
51618;SDS011;38518;53.164;5.430;2024-03-06T11:26:35;34.00;;;23.98;;
51618;SDS011;38518;53.164;5.430;2024-03-06T11:29:01;34.55;;;24.52;;
51618;SDS011;38518;53.164;5.430;2024-03-06T11:31:27;31.70;;;20.25;;
51618;SDS011;38518;53.164;5.430;2024-03-06T11:33:53;31.38;;;24.73;;
51618;SDS011;38518;53.164;5.430;2024-03-06T11:41:21;34.92;;;24.75;;
51618;SDS011;38518;53.164;5.430;2024-03-06T11:43:50;31.70;;;19.58;;
51618;SDS011;38518;53.164;5.430;2024-03-06T11:46:18;34.88;;;20.13;;
51618;SDS011;38518;53.164;5.430;2024-03-06T11:48:55;36.35;;;20.67;;
51618;SDS011;38518;53.164;5.430;2024-03-06T11:51:22;31.98;;;24.88;;
51618;SDS011;38518;53.164;5.430;2024-03-06T11:53:49;29.60;;;20.02;;
51618;SDS011;38518;53.164;5.430;2024-03-06T11:56:16;33.47;;;23.98;;
51618;SDS011;38518;53.164;5.430;2024-03-06T11:58:45;33.85;;;20.48;;
51618;SDS011;38518;53.164;5.430;2024-03-06T12:01:12;39.53;;;24.88;;
51618;SDS011;38518;53.164;5.430;2024-03-06T12:03:39;33.33;;;20.45;;
51618;SDS011;38518;53.164;5.430;2024-03-06T12:06:07;34.45;;;24.90;;
51618;SDS011;38518;53.164;5.430;2024-03-06T12:08:33;33.53;;;20.65;;
51618;SDS011;38518;53.164;5.430;2024-03-06T12:11:02;34.80;;;24.77;;
51618;SDS011;38518;53.164;5.430;2024-03-06T12:13:30;29.60;;;20.38;;
51618;SDS011;38518;53.164;5.430;2024-03-06T12:15:56;29.02;;;20.00;;
51618;SDS011;38518;53.164;5.430;2024-03-06T12:18:23;32.50;;;25.35;;
51618;SDS011;38518;53.164;5.430;2024-03-06T12:20:50;41.38;;;21.40;;
51618;SDS011;38518;53.164;5.430;2024-03-06T12:23:20;32.30;;;20.77;;
51618;SDS011;38518;53.164;5.430;2024-03-06T12:25:47;34.42;;;21.27;;
51618;SDS011;38518;53.164;5.430;2024-03-06T12:28:13;32.13;;;24.90;;
51618;SDS011;38518;53.164;5.430;2024-03-06T12:30:40;32.72;;;21.33;;
51618;SDS011;38518;53.164;5.430;2024-03-06T12:33:08;32.67;;;20.95;;
51618;SDS011;38518;53.164;5.430;2024-03-06T12:35:35;31.48;;;24.80;;
51618;SDS011;38518;53.164;5.430;2024-03-06T12:38:11;32.67;;;21.17;;
51618;SDS011;38518;53.164;5.430;2024-03-06T12:40:38;33.92;;;24.67;;
51618;SDS011;38518;53.164;5.430;2024-03-06T12:43:05;32.30;;;24.80;;
51618;SDS011;38518;53.164;5.430;2024-03-06T12:45:30;34.83;;;22.15;;
51618;SDS011;38518;53.164;5.430;2024-03-06T12:47:56;33.80;;;26.13;;
51618;SDS011;38518;53.164;5.430;2024-03-06T12:50:22;31.83;;;22.05;;
51618;SDS011;38518;53.164;5.430;2024-03-06T12:52:48;33.72;;;25.60;;
51618;SDS011;38518;53.164;5.430;2024-03-06T12:55:14;37.97;;;24.65;;
51618;SDS011;38518;53.164;5.430;2024-03-06T12:57:40;31.20;;;25.27;;
51618;SDS011;38518;53.164;5.430;2024-03-06T13:00:06;35.25;;;21.60;;
51618;SDS011;38518;53.164;5.430;2024-03-06T13:02:41;30.35;;;26.15;;
51618;SDS011;38518;53.164;5.430;2024-03-06T13:05:09;33.72;;;26.23;;
51618;SDS011;38518;53.164;5.430;2024-03-06T13:07:35;33.63;;;21.23;;
51618;SDS011;38518;53.164;5.430;2024-03-06T13:10:01;33.42;;;24.40;;
51618;SDS011;38518;53.164;5.430;2024-03-06T13:12:28;32.58;;;21.00;;
51618;SDS011;38518;53.164;5.430;2024-03-06T13:14:54;31.33;;;24.58;;
51618;SDS011;38518;53.164;5.430;2024-03-06T13:17:19;34.30;;;25.88;;
51618;SDS011;38518;53.164;5.430;2024-03-06T13:19:45;30.45;;;24.38;;
51618;SDS011;38518;53.164;5.430;2024-03-06T13:22:11;34.35;;;24.92;;
51618;SDS011;38518;53.164;5.430;2024-03-06T13:24:37;32.08;;;20.70;;
51618;SDS011;38518;53.164;5.430;2024-03-06T13:27:03;33.40;;;20.48;;
51618;SDS011;38518;53.164;5.430;2024-03-06T13:29:29;30.95;;;24.85;;
51618;SDS011;38518;53.164;5.430;2024-03-06T13:31:55;33.80;;;24.73;;
51618;SDS011;38518;53.164;5.430;2024-03-06T13:34:21;33.50;;;21.25;;
51618;SDS011;38518;53.164;5.430;2024-03-06T13:36:47;35.45;;;21.67;;
51618;SDS011;38518;53.164;5.430;2024-03-06T13:39:12;30.75;;;25.48;;
51618;SDS011;38518;53.164;5.430;2024-03-06T13:41:38;32.92;;;21.77;;
51618;SDS011;38518;53.164;5.430;2024-03-06T13:44:05;33.45;;;25.33;;
51618;SDS011;38518;53.164;5.430;2024-03-06T13:46:33;29.42;;;20.60;;
51618;SDS011;38518;53.164;5.430;2024-03-06T13:48:59;30.63;;;25.10;;
51618;SDS011;38518;53.164;5.430;2024-03-06T13:51:25;34.72;;;25.88;;
51618;SDS011;38518;53.164;5.430;2024-03-06T13:53:51;33.70;;;25.80;;
51618;SDS011;38518;53.164;5.430;2024-03-06T13:56:17;31.58;;;25.75;;
51618;SDS011;38518;53.164;5.430;2024-03-06T13:58:43;30.10;;;20.25;;
51618;SDS011;38518;53.164;5.430;2024-03-06T14:01:09;32.63;;;26.33;;
51618;SDS011;38518;53.164;5.430;2024-03-06T14:03:35;29.75;;;25.67;;
51618;SDS011;38518;53.164;5.430;2024-03-06T14:06:03;35.22;;;22.85;;
51618;SDS011;38518;53.164;5.430;2024-03-06T14:08:29;34.10;;;25.75;;
51618;SDS011;38518;53.164;5.430;2024-03-06T14:10:55;34.10;;;26.52;;
51618;SDS011;38518;53.164;5.430;2024-03-06T14:13:21;31.35;;;25.48;;
51618;SDS011;38518;53.164;5.430;2024-03-06T14:15:48;33.08;;;25.77;;
51618;SDS011;38518;53.164;5.430;2024-03-06T14:18:14;31.90;;;25.63;;
51618;SDS011;38518;53.164;5.430;2024-03-06T14:20:40;30.17;;;24.25;;
51618;SDS011;38518;53.164;5.430;2024-03-06T14:23:06;28.52;;;24.10;;
51618;SDS011;38518;53.164;5.430;2024-03-06T14:25:32;33.03;;;24.13;;
51618;SDS011;38518;53.164;5.430;2024-03-06T14:28:03;30.00;;;23.67;;
51618;SDS011;38518;53.164;5.430;2024-03-06T14:30:29;28.52;;;23.92;;
51618;SDS011;38518;53.164;5.430;2024-03-06T14:32:55;27.15;;;23.33;;
51618;SDS011;38518;53.164;5.430;2024-03-06T14:35:20;27.73;;;23.48;;